Airfield :
LOGIN :

Register | Disclaimer

   EN    FR    IT 

 










Legend :    VFR   Marginal VFR   IFR   Intensive IFR   Very Intensive IFR
Visi :
Ceiling :
>= 8 km
>= 3000ft
5 to 8 km
1000 to 3000 ft
1500m to 5 km
500 to 1000 ft
800 to 1500m
200 to 500 ft
< 800m
< 200 ft
Symbols :   Thunderstorms  Fog  Heavy snow  Heavy precipitations  Wind > 20 kt
SIGMETs :     Misc.  Thunderstorms  Icing  Turbulence  Mountain Waves  Volcanic Ashes







- Airport Elevation : 295 ft
- IATA code : BWE


EDVE - Braunschweig

CURRENT METAR :
  • 151550Z 00000KT 9999 OVC026 03/03 Q0998

EXPIRED METARs :
  • 151520Z 00000KT 9999 SCT021 OVC024 04/03 Q0998
  • 151450Z 24004KT 9999 BKN020 BKN025 04/02 Q0997
  • 151420Z 25003KT 9999 BKN020 04/02 Q0997
  • 151350Z 27005KT 240V300 9999 BKN020 04/02 Q0997
  • 151320Z 26006KT 9999 FEW016 04/02 Q0996
  • 151250Z 27005KT 9999 FEW015 SCT034 04/03 Q0996

TAF TAF EDVE
Valid from the 15 at 15:00 until the 15 at 21:00 UTC


151400Z 1515/1521 23003KT 9999 BKN020
No reported NOTAMs for that airfield.



MET'MAP, your aeronautical weather chart ! - Copyright ORBIFLY December 2007 - Disclaimer

ORBIFLY MET'MAP TEAM :

Programming & Development : Alexandra Zaïnal
Concept & Development : Baudouin d'Aumeries
Co-Development & Prog : Marc-Olivier Méhu
Technical & hardware support : Manuel Goepfert

Contact : metmap@orbifly.com




SOURCES & CREDITS :

   NOAA